createdAt,value
2019-03-20T00:00:13.384Z,1.52
2019-03-20T00:05:20.231Z,1.48
2019-03-20T00:10:25.758Z,1.52
2019-03-20T00:15:30.966Z,1.45
2019-03-20T00:20:37.173Z,1.26
2019-03-20T00:25:42.502Z,1.25
2019-03-20T00:30:48.879Z,1.22
2019-03-20T00:35:54.144Z,1.26
2019-03-20T00:41:00.424Z,1.18
2019-03-20T00:46:05.668Z,1.20
2019-03-20T00:51:10.863Z,1.02
2019-03-20T00:56:17.273Z,0.98
2019-03-20T01:01:22.503Z,0.98
2019-03-20T01:06:27.855Z,0.99
2019-03-20T01:11:33.247Z,0.99
2019-03-20T01:16:39.502Z,0.98
2019-03-20T01:21:44.696Z,0.72
2019-03-20T01:26:49.910Z,0.76
2019-03-20T01:31:55.107Z,0.82
2019-03-20T01:37:00.738Z,0.77
2019-03-20T01:42:06.035Z,0.67
2019-03-20T01:47:11.245Z,0.60
2019-03-20T01:52:16.515Z,0.64
2019-03-20T01:57:22.327Z,0.64
2019-03-20T02:02:27.527Z,0.69
2019-03-20T02:07:32.735Z,0.54
2019-03-20T02:12:38.079Z,0.55
2019-03-20T02:17:43.279Z,0.42
2019-03-20T02:22:48.493Z,0.45
2019-03-20T02:27:53.696Z,0.34
2019-03-20T02:32:58.924Z,0.43
2019-03-20T02:38:04.628Z,0.37
2019-03-20T02:43:09.837Z,0.25
2019-03-20T02:48:15.133Z,0.29
2019-03-20T02:53:20.447Z,0.26
2019-03-20T02:58:25.646Z,0.23
2019-03-20T03:03:30.931Z,0.17
2019-03-20T03:08:36.217Z,0.12
2019-03-20T03:13:41.409Z,0.17
2019-03-20T03:18:46.607Z,0.11
2019-03-20T03:23:51.915Z,0.10
2019-03-20T03:28:57.186Z,0.15
2019-03-20T03:34:02.481Z,0.08
2019-03-20T03:39:08.460Z,0.13
2019-03-20T03:44:13.924Z,0.04
2019-03-20T03:49:19.166Z,0.00
2019-03-20T03:54:24.402Z,-0.01
2019-03-20T03:59:29.722Z,-0.02
2019-03-20T04:04:34.934Z,-0.09
2019-03-20T04:09:40.139Z,-0.10
2019-03-20T04:14:45.331Z,-0.16
2019-03-20T04:19:50.760Z,-0.27
2019-03-20T04:24:56.022Z,-0.36
2019-03-20T04:30:01.221Z,-0.37
2019-03-20T04:35:06.718Z,-0.18
2019-03-20T04:40:12.254Z,-0.32
2019-03-20T04:45:17.443Z,-0.21
2019-03-20T04:50:22.949Z,-0.26
2019-03-20T04:55:28.506Z,-0.27
2019-03-20T05:00:33.703Z,-0.36
2019-03-20T05:05:39.069Z,-0.43
2019-03-20T05:10:44.260Z,-0.44
2019-03-20T05:15:49.525Z,-0.33
2019-03-20T05:20:55.189Z,-0.45
2019-03-20T05:26:00.556Z,-0.47
2019-03-20T05:31:05.756Z,-0.54
2019-03-20T05:36:11.106Z,-0.50
2019-03-20T05:41:16.507Z,-0.42
2019-03-20T05:46:22.109Z,-0.50
2019-03-20T05:51:27.359Z,-0.51
2019-03-20T05:56:32.648Z,-0.35
2019-03-20T06:01:37.877Z,-0.34
2019-03-20T06:06:43.219Z,-0.28
2019-03-20T06:11:48.534Z,-0.05
2019-03-20T06:16:53.750Z,0.09
2019-03-20T06:21:59.090Z,0.21
2019-03-20T06:27:04.407Z,0.47
2019-03-20T06:32:09.614Z,0.71
2019-03-20T06:37:14.974Z,0.95
2019-03-20T06:42:20.241Z,1.29
2019-03-20T06:47:25.719Z,1.67
2019-03-20T06:52:31.013Z,1.89
2019-03-20T06:57:36.251Z,2.10
2019-03-20T07:02:44.438Z,2.24
2019-03-20T07:07:49.505Z,2.55
2019-03-20T07:12:54.916Z,2.73
2019-03-20T07:18:00.249Z,3.06
2019-03-20T07:23:05.734Z,3.40
2019-03-20T07:28:11.035Z,3.82
2019-03-20T07:33:17.142Z,4.23
2019-03-20T07:38:22.602Z,4.51
2019-03-20T07:43:27.958Z,5.08
2019-03-20T07:48:33.507Z,5.32
2019-03-20T07:53:38.879Z,5.50
2019-03-20T07:58:44.361Z,5.72
2019-03-20T08:03:49.554Z,6.04
2019-03-20T08:08:54.758Z,6.34
2019-03-20T08:14:00.158Z,6.63
2019-03-20T08:19:05.503Z,6.79
2019-03-20T08:24:10.722Z,6.90
2019-03-20T08:29:16.087Z,7.28
2019-03-20T08:34:21.330Z,7.38
2019-03-20T08:39:26.739Z,7.39
2019-03-20T08:44:32.011Z,7.64
2019-03-20T08:49:37.396Z,7.93
2019-03-20T08:54:42.636Z,8.22
2019-03-20T08:59:47.937Z,8.55
2019-03-20T09:04:54.293Z,9.12
2019-03-20T09:09:59.666Z,9.40
2019-03-20T09:15:05.087Z,9.89
2019-03-20T09:20:15.365Z,9.99
2019-03-20T09:25:20.608Z,10.11
2019-03-20T09:30:25.864Z,10.50
2019-03-20T09:35:31.224Z,10.70
2019-03-20T09:40:36.816Z,11.00
2019-03-20T09:45:42.094Z,11.26
2019-03-20T09:50:47.307Z,11.55
2019-03-20T09:55:52.521Z,11.88
2019-03-20T10:00:57.879Z,12.11
2019-03-20T10:06:03.164Z,12.02
2019-03-20T10:11:08.390Z,12.58
2019-03-20T10:16:13.590Z,12.61
2019-03-20T10:21:19.143Z,12.81
2019-03-20T10:26:24.422Z,12.55
2019-03-20T10:31:29.716Z,12.84
2019-03-20T10:36:34.912Z,13.39
2019-03-20T10:41:40.130Z,13.39
2019-03-20T10:46:46.393Z,13.72
2019-03-20T10:51:51.744Z,14.21
2019-03-20T10:56:57.194Z,14.52
2019-03-20T11:02:02.739Z,14.65
2019-03-20T11:07:08.122Z,14.72
2019-03-20T11:12:13.328Z,14.87
2019-03-20T11:17:18.541Z,14.88
2019-03-20T11:22:24.720Z,15.59
2019-03-20T11:27:29.929Z,15.85
2019-03-20T11:32:35.279Z,15.50
2019-03-20T11:37:40.499Z,16.28
2019-03-20T11:42:46.018Z,16.53
2019-03-20T11:47:51.274Z,16.44
2019-03-20T11:52:56.534Z,17.17
2019-03-20T11:58:01.745Z,17.97
2019-03-20T12:03:07.080Z,17.62
2019-03-20T12:08:12.291Z,18.81
2019-03-20T12:13:17.551Z,18.79
2019-03-20T12:18:22.908Z,19.76
2019-03-20T12:23:28.218Z,20.06
2019-03-20T12:28:33.417Z,20.40
2019-03-20T12:33:38.675Z,20.80
2019-03-20T12:38:43.995Z,20.73
2019-03-20T12:43:49.484Z,21.43
2019-03-20T12:48:54.733Z,22.50
2019-03-20T12:54:00.017Z,22.59
2019-03-20T12:59:05.206Z,22.59
2019-03-20T13:04:10.818Z,23.24
2019-03-20T13:09:16.608Z,24.39
2019-03-20T13:14:22.042Z,25.27
2019-03-20T13:19:27.274Z,25.23
2019-03-20T13:24:32.854Z,25.60
2019-03-20T13:29:38.141Z,26.24
2019-03-20T13:34:43.823Z,27.42
2019-03-20T13:39:50.439Z,24.72
2019-03-20T13:44:55.735Z,21.92
2019-03-20T13:50:00.986Z,19.95
2019-03-20T13:55:06.711Z,19.37
2019-03-20T14:00:15.153Z,18.82
2019-03-20T14:05:20.987Z,17.73
2019-03-20T14:10:26.508Z,17.16
2019-03-20T14:15:31.806Z,17.28
2019-03-20T14:20:37.132Z,16.63
2019-03-20T14:25:42.679Z,16.20
2019-03-20T14:30:48.048Z,15.83
2019-03-20T14:35:53.286Z,15.91
2019-03-20T14:40:58.573Z,15.96
2019-03-20T14:46:03.805Z,15.54
2019-03-20T14:51:09.121Z,15.31
2019-03-20T14:56:14.622Z,15.25
2019-03-20T15:01:20.812Z,15.31
2019-03-20T15:06:26.054Z,15.35
2019-03-20T15:11:31.277Z,15.03
2019-03-20T15:16:36.672Z,15.29
2019-03-20T15:21:41.999Z,14.99
2019-03-20T15:26:47.279Z,14.83
2019-03-20T15:31:52.510Z,15.05
2019-03-20T15:36:57.799Z,14.85
2019-03-20T15:42:03.032Z,15.00
2019-03-20T15:47:09.261Z,15.01
2019-03-20T15:52:14.492Z,15.00
2019-03-20T15:57:20.049Z,14.73
2019-03-20T16:02:25.315Z,14.64
2019-03-20T16:07:30.648Z,14.58
2019-03-20T16:12:35.890Z,14.56
2019-03-20T16:17:41.248Z,14.45
2019-03-20T16:22:46.614Z,14.28
2019-03-20T16:27:51.958Z,14.17
2019-03-20T16:32:57.251Z,14.12
2019-03-20T16:38:02.515Z,13.98
2019-03-20T16:43:08.481Z,13.94
2019-03-20T16:48:13.927Z,13.81
2019-03-20T16:53:19.187Z,13.76
2019-03-20T16:58:24.468Z,13.67
2019-03-20T17:03:30.723Z,13.65
2019-03-20T17:08:35.939Z,13.56
2019-03-20T17:13:41.455Z,13.29
2019-03-20T17:18:47.715Z,13.19
2019-03-20T17:23:52.924Z,13.04
2019-03-20T17:28:58.126Z,12.67
2019-03-20T17:34:03.333Z,12.43
2019-03-20T17:39:10.007Z,12.05
2019-03-20T17:44:15.306Z,11.85
2019-03-20T17:49:20.833Z,11.57
2019-03-20T17:54:26.207Z,11.27
2019-03-20T17:59:31.498Z,11.00
2019-03-20T18:04:36.757Z,10.79
2019-03-20T18:09:41.940Z,10.61
2019-03-20T18:14:47.246Z,10.45
2019-03-20T18:19:52.450Z,10.28
2019-03-20T18:24:57.747Z,10.04
2019-03-20T18:30:02.969Z,9.86
2019-03-20T18:35:08.503Z,9.67
2019-03-20T18:40:15.148Z,9.48
2019-03-20T18:45:20.825Z,9.40
2019-03-20T18:50:26.142Z,9.16
2019-03-20T18:55:32.437Z,9.11
2019-03-20T19:00:37.741Z,9.02
2019-03-20T19:05:49.588Z,8.79
2019-03-20T19:10:54.972Z,8.51
2019-03-20T19:16:01.906Z,8.58
2019-03-20T19:21:07.635Z,8.44
2019-03-20T19:26:12.897Z,8.03
2019-03-20T19:31:18.098Z,7.96
2019-03-20T19:36:23.396Z,7.87
2019-03-20T19:41:28.866Z,7.76
2019-03-20T19:46:34.210Z,7.51
2019-03-20T19:51:39.570Z,7.41
2019-03-20T19:56:46.278Z,7.43
2019-03-20T20:01:51.505Z,7.33
2019-03-20T20:06:56.741Z,7.13
2019-03-20T20:12:02.029Z,7.01
2019-03-20T20:17:07.835Z,7.03
2019-03-20T20:22:14.256Z,6.86
2019-03-20T20:27:20.605Z,6.78
2019-03-20T20:32:26.074Z,6.72
2019-03-20T20:37:31.643Z,6.70
2019-03-20T20:42:43.047Z,6.58
2019-03-20T20:47:44.145Z,6.37
2019-03-20T20:52:49.492Z,6.32
2019-03-20T20:57:54.813Z,6.31
2019-03-20T21:03:00.150Z,6.24
2019-03-20T21:08:05.360Z,6.01
2019-03-20T21:13:11.241Z,5.94
2019-03-20T21:18:57.408Z,5.93
2019-03-20T21:24:30.303Z,5.90
2019-03-20T21:30:07.819Z,5.82
2019-03-20T21:36:06.008Z,5.64
2019-03-20T21:42:07.336Z,5.72
2019-03-20T21:47:34.088Z,5.38
2019-03-20T21:52:40.067Z,5.37
2019-03-20T21:58:01.574Z,5.34
2019-03-20T22:03:07.569Z,5.22
2019-03-20T22:08:13.892Z,5.26
2019-03-20T22:13:29.543Z,5.37
2019-03-20T22:19:24.424Z,5.28
2019-03-20T22:25:03.207Z,5.08
2019-03-20T22:30:09.700Z,5.08
2019-03-20T22:35:44.455Z,4.93
2019-03-20T22:41:31.126Z,4.83
2019-03-20T22:47:31.775Z,4.80
2019-03-20T22:53:09.036Z,4.67
2019-03-20T22:58:47.052Z,4.63
2019-03-20T23:03:57.881Z,4.52
2019-03-20T23:09:05.552Z,4.43
2019-03-20T23:14:13.643Z,4.43
2019-03-20T23:19:19.793Z,4.35
2019-03-20T23:24:25.919Z,4.28
2019-03-20T23:29:33.074Z,4.26
2019-03-20T23:34:39.730Z,4.15
2019-03-20T23:39:46.035Z,4.18
2019-03-20T23:44:52.516Z,4.21
2019-03-20T23:49:58.620Z,4.08
2019-03-20T23:55:05.948Z,4.10
